Time;durP1;ratioP1;P1;durP2;ratioP2;P2;SDS_P1;SDS_P2;PMS_P1;PMS_P2;Temp;Humidity;BMP_temperature;BMP_pressure;BME280_temperature;BME280_humidity;BME280_pressure;Samples;Min_cycle;Max_cycle;Signal;HPM_P1;HPM_P2
2023/06/11 00:00:04;;;;;;;;;;;18.90;67.40;;;18.09;nan;95801.31;5034488;28;19921;-82
2023/06/11 00:02:34;;;;;;;;;;;18.90;67.30;;;18.08;nan;95796.91;5048855;28;19921;-82
2023/06/11 00:05:03;;;;;;;;;;;18.90;67.30;;;18.07;nan;95789.75;5051486;28;19927;-82
2023/06/11 00:07:34;;;;;;;;;;;18.80;67.20;;;18.06;nan;95793.66;5068233;28;19927;-83
2023/06/11 00:10:03;;;;;;;;;;;18.90;67.30;;;18.05;nan;95797.56;5050825;28;19927;-82
2023/06/11 00:12:32;;;;;;;;;;;18.80;67.10;;;18.05;nan;95799.53;5051210;28;19921;-82
2023/06/11 00:15:02;;;;;;;;;;;18.80;67.20;;;18.03;nan;95796.28;5051374;28;20116;-82
2023/06/11 00:17:32;;;;;;;;;;;18.80;67.10;;;18.02;nan;95800.97;5052657;28;19921;-82
2023/06/11 00:20:01;;;;;;;;;;;18.80;67.00;;;18.01;nan;95802.13;5051899;28;20090;-82
2023/06/11 00:22:31;;;;;;;;;;;18.80;67.10;;;18.00;nan;95802.47;5050901;28;19943;-82
2023/06/11 00:25:01;;;;;;;;;;;18.80;67.00;;;18.00;nan;95803.28;5084690;28;19927;-82
2023/06/11 00:27:28;;;;;;;;;;;18.80;67.10;;;17.99;nan;95807.19;5051276;28;19927;-82
2023/06/11 00:29:57;;;;;;;;;;;18.80;67.00;;;17.98;nan;95807.50;5050549;28;19927;-82
2023/06/11 00:32:24;;;;;;;;;;;18.80;67.00;;;17.98;nan;95807.50;5051141;28;19920;-82
2023/06/11 00:34:53;;;;;;;;;;;18.70;67.20;;;17.97;nan;95803.06;5051124;28;19921;-82
2023/06/11 00:37:22;;;;;;;;;;;18.70;67.10;;;17.97;nan;95806.72;5051201;28;19927;-82
2023/06/11 00:39:50;;;;;;;;;;;18.70;67.00;;;17.96;nan;95818.91;5051423;28;19927;-82
2023/06/11 00:42:20;;;;;;;;;;;18.70;67.00;;;17.95;nan;95812.53;5049972;28;19929;-82
2023/06/11 00:44:48;;;;;;;;;;;18.70;66.90;;;17.94;nan;95808.13;5084252;28;20221;-82
2023/06/11 00:47:16;;;;;;;;;;;18.70;66.90;;;17.93;nan;95809.28;5051998;28;20098;-82
2023/06/11 00:49:44;;;;;;;;;;;18.70;67.10;;;17.93;nan;95811.22;5083686;28;19920;-82
2023/06/11 00:52:13;;;;;;;;;;;18.70;67.10;;;17.92;nan;95813.22;5050866;28;19921;-82
2023/06/11 00:54:42;;;;;;;;;;;18.70;67.10;;;17.91;nan;95816.28;5050571;28;19921;-82
2023/06/11 00:57:10;;;;;;;;;;;18.70;67.00;;;17.92;nan;95812.38;5050873;28;19931;-82
2023/06/11 00:59:40;;;;;;;;;;;18.70;66.80;;;17.90;nan;95821.03;5066634;28;19943;-82
2023/06/11 01:02:15;;;;;;;;;;;18.70;66.90;;;17.89;nan;95819.38;5051883;28;20128;-82
2023/06/11 01:04:43;;;;;;;;;;;18.70;66.90;;;17.88;nan;95816.97;5050682;28;19921;-82
2023/06/11 01:07:11;;;;;;;;;;;18.70;66.90;;;17.89;nan;95824.09;5051868;28;19921;-82
2023/06/11 01:09:39;;;;;;;;;;;18.70;66.90;;;17.87;nan;95821.66;5083480;28;20120;-82
2023/06/11 01:12:09;;;;;;;;;;;18.70;67.00;;;17.87;nan;95820.88;5067139;28;19920;-82
2023/06/11 01:14:39;;;;;;;;;;;18.70;67.10;;;17.87;nan;95820.88;5050456;28;20208;-82
2023/06/11 01:17:15;;;;;;;;;;;18.60;67.00;;;17.86;nan;95822.81;5067265;28;19945;-82
2023/06/11 01:19:53;;;;;;;;;;;18.70;66.90;;;17.86;nan;95825.56;5049896;28;19921;-82
2023/06/11 01:22:29;;;;;;;;;;;18.60;66.80;;;17.84;nan;95822.31;5050428;28;20119;-82
2023/06/11 01:25:17;;;;;;;;;;;18.60;66.80;;;17.84;nan;95819.53;5066815;28;19920;-82
2023/06/11 01:28:05;;;;;;;;;;;18.60;66.80;;;17.83;nan;95817.13;5050647;28;19920;-82
2023/06/11 01:30:35;;;;;;;;;;;18.60;66.80;;;17.82;nan;95818.25;5033254;28;20204;-82
2023/06/11 01:33:05;;;;;;;;;;;18.60;66.80;;;17.82;nan;95815.50;5033716;28;19927;-82
2023/06/11 01:35:39;;;;;;;;;;;18.60;66.80;;;17.83;nan;95825.41;5066883;28;19927;-82
2023/06/11 01:38:08;;;;;;;;;;;18.60;66.80;;;17.81;nan;95838.78;5050356;28;19927;-82
2023/06/11 01:40:50;;;;;;;;;;;18.60;66.80;;;17.81;nan;95820.22;5049994;28;19921;-82
2023/06/11 01:43:19;;;;;;;;;;;18.60;66.70;;;17.80;nan;95821.38;5066831;28;19921;-82
2023/06/11 01:45:48;;;;;;;;;;;18.60;66.90;;;17.80;nan;95821.38;5066572;28;19927;-82
2023/06/11 01:48:16;;;;;;;;;;;18.60;66.90;;;17.79;nan;95834.38;5083302;28;19920;-82
2023/06/11 01:50:44;;;;;;;;;;;18.50;67.00;;;17.79;nan;95837.16;5050709;28;19920;-82
2023/06/11 01:53:12;;;;;;;;;;;18.50;67.10;;;17.79;nan;95830.81;5087884;28;19920;-82
2023/06/11 01:55:42;;;;;;;;;;;18.60;67.10;;;17.79;nan;95831.59;5073250;28;19927;-82
2023/06/11 01:58:11;;;;;;;;;;;18.50;67.20;;;17.81;nan;95833.25;5057686;28;19921;-82
2023/06/11 02:00:40;;;;;;;;;;;18.60;67.40;;;17.78;nan;95835.50;5072690;28;20136;-82
2023/06/11 02:03:08;;;;;;;;;;;18.60;67.50;;;17.79;nan;95833.56;5056477;28;19927;-82
2023/06/11 02:05:36;;;;;;;;;;;18.60;67.60;;;17.78;nan;95826.41;5073064;28;19921;-82
2023/06/11 02:08:05;;;;;;;;;;;18.60;67.70;;;17.78;nan;95834.72;5056484;28;19920;-82
2023/06/11 02:10:33;;;;;;;;;;;18.60;67.60;;;17.77;nan;95835.84;5055858;28;19920;-82
2023/06/11 02:13:01;;;;;;;;;;;18.50;67.60;;;17.75;nan;95838.94;5039632;28;19928;-82
2023/06/11 02:15:28;;;;;;;;;;;18.50;67.70;;;17.75;nan;95847.22;5072849;28;20116;-82
2023/06/11 02:17:58;;;;;;;;;;;18.50;67.60;;;17.73;nan;95838.47;5056542;28;19921;-82
2023/06/11 02:20:26;;;;;;;;;;;18.50;67.60;;;17.72;nan;95845.13;5055437;28;19921;-82
2023/06/11 02:22:54;;;;;;;;;;;18.50;67.80;;;17.72;nan;95836.84;5089900;28;19921;-82
2023/06/11 02:25:22;;;;;;;;;;;18.50;67.90;;;17.72;nan;95842.38;5056079;28;19936;-82
2023/06/11 02:27:51;;;;;;;;;;;18.50;68.00;;;17.72;nan;95849.84;5073013;28;19920;-82
2023/06/11 02:30:19;;;;;;;;;;;18.50;67.90;;;17.71;nan;95862.88;5054960;28;19927;-82
2023/06/11 02:32:48;;;;;;;;;;;18.50;67.80;;;17.69;nan;95853.25;5072754;28;20205;-82
2023/06/11 02:35:17;;;;;;;;;;;18.50;67.70;;;17.68;nan;95869.06;5039376;28;19920;-82
2023/06/11 02:37:45;;;;;;;;;;;18.40;67.60;;;17.67;nan;95872.97;5073000;28;19920;-82
2023/06/11 02:40:13;;;;;;;;;;;18.50;67.70;;;17.67;nan;95874.94;5038987;28;20112;-81
2023/06/11 02:42:41;;;;;;;;;;;18.50;67.70;;;17.65;nan;95869.72;5057450;28;19927;-81
2023/06/11 02:45:10;;;;;;;;;;;18.40;67.60;;;17.65;nan;95872.47;5056062;28;20109;-81
2023/06/11 02:47:38;;;;;;;;;;;18.50;67.90;;;17.66;nan;95876.88;5056339;28;19921;-81
2023/06/11 02:50:07;;;;;;;;;;;18.40;67.70;;;17.66;nan;95865.81;5039119;28;19921;-81
2023/06/11 02:52:36;;;;;;;;;;;18.50;68.00;;;17.66;nan;95876.88;5072544;28;19921;-81
2023/06/11 02:55:05;;;;;;;;;;;18.50;68.00;;;17.67;nan;95883.25;5072591;28;19921;-81
2023/06/11 02:57:33;;;;;;;;;;;18.40;67.80;;;17.66;nan;95871.34;5055973;28;19935;-81
2023/06/11 03:00:01;;;;;;;;;;;18.40;67.80;;;17.66;nan;95865.81;5071319;28;19921;-81
2023/06/11 03:02:29;;;;;;;;;;;18.40;68.10;;;17.65;nan;95864.16;5055198;28;19921;-82
2023/06/11 03:04:57;;;;;;;;;;;18.40;68.00;;;17.64;nan;95868.91;5069190;28;19921;-81
2023/06/11 03:07:25;;;;;;;;;;;18.40;67.80;;;17.65;nan;95866.94;5052573;28;19927;-82
2023/06/11 03:09:55;;;;;;;;;;;18.50;68.00;;;17.65;nan;95875.25;5068701;28;19921;-81
2023/06/11 03:12:23;;;;;;;;;;;18.40;67.90;;;17.64;nan;95879.16;5068935;28;19920;-81
2023/06/11 03:14:51;;;;;;;;;;;18.40;68.00;;;17.64;nan;95876.38;5052615;28;19921;-82
2023/06/11 03:17:19;;;;;;;;;;;18.40;68.10;;;17.64;nan;95868.91;5069108;28;19921;-82
2023/06/11 03:19:47;;;;;;;;;;;18.40;68.10;;;17.66;nan;95873.31;5068593;28;19921;-82
2023/06/11 03:22:15;;;;;;;;;;;18.40;68.30;;;17.64;nan;95873.63;5068817;28;19920;-82
2023/06/11 03:24:43;;;;;;;;;;;18.40;68.00;;;17.60;nan;95873.47;5035797;28;20143;-82
2023/06/11 03:27:23;;;;;;;;;;;18.40;68.10;;;17.58;nan;95869.38;5086030;28;20116;-82
2023/06/11 03:29:51;;;;;;;;;;;18.40;68.10;;;17.55;nan;95870.03;5052036;28;19927;-82
2023/06/11 03:32:19;;;;;;;;;;;18.30;68.30;;;17.54;nan;95868.41;5068929;28;19920;-81
2023/06/11 03:34:51;;;;;;;;;;;18.30;68.40;;;17.54;nan;95868.41;5069095;28;19921;-82
2023/06/11 03:37:20;;;;;;;;;;;18.30;68.50;;;17.55;nan;95870.88;5052147;28;19921;-82
2023/06/11 03:39:48;;;;;;;;;;;18.30;68.60;;;17.54;nan;95873.94;5051591;28;19921;-81
2023/06/11 03:42:16;;;;;;;;;;;18.40;68.70;;;17.54;nan;95879.47;5085491;28;19927;-81
2023/06/11 03:44:46;;;;;;;;;;;18.30;68.40;;;17.54;nan;95880.31;5052021;28;19921;-82
2023/06/11 03:47:16;;;;;;;;;;;18.30;68.70;;;17.55;nan;95883.88;5068826;28;19921;-82
2023/06/11 03:49:44;;;;;;;;;;;18.30;68.80;;;17.55;nan;95870.03;5068281;28;19921;-81
2023/06/11 03:52:12;;;;;;;;;;;18.30;68.90;;;17.56;nan;95882.72;5051532;28;19943;-82
2023/06/11 03:54:41;;;;;;;;;;;18.30;68.80;;;17.58;nan;95872.16;5068524;28;19921;-81
2023/06/11 03:57:10;;;;;;;;;;;18.40;68.70;;;17.58;nan;95869.38;5052955;28;20242;-82
2023/06/11 03:59:38;;;;;;;;;;;18.30;68.80;;;17.60;nan;95872.66;5068311;28;19975;-82
2023/06/11 04:02:07;;;;;;;;;;;18.40;68.70;;;17.61;nan;95863.22;5051473;28;19921;-82
2023/06/11 04:04:36;;;;;;;;;;;18.40;68.60;;;17.64;nan;95868.06;5052988;28;19920;-81
2023/06/11 04:07:05;;;;;;;;;;;18.40;68.80;;;17.66;nan;95863.03;5051741;28;19921;-81
2023/06/11 04:09:33;;;;;;;;;;;18.40;68.80;;;17.68;nan;95869.06;5067705;28;19927;-81
2023/06/11 04:12:01;;;;;;;;;;;18.40;68.70;;;17.69;nan;95867.94;5051605;28;19927;-81
2023/06/11 04:14:30;;;;;;;;;;;18.50;68.70;;;17.71;nan;95868.44;5068434;28;19921;-82
2023/06/11 04:16:58;;;;;;;;;;;18.50;68.70;;;17.73;nan;95859.78;5050112;28;20090;-81
2023/06/11 04:19:28;;;;;;;;;;;18.50;68.80;;;17.75;nan;95858.31;5067733;28;19921;-82
2023/06/11 04:21:56;;;;;;;;;;;18.50;68.90;;;17.76;nan;95864.69;5051193;28;19921;-81
2023/06/11 04:24:25;;;;;;;;;;;18.50;68.80;;;17.77;nan;95858.81;5084760;28;19984;-81
2023/06/11 04:26:53;;;;;;;;;;;18.50;68.80;;;17.75;nan;95855.53;5051411;28;20209;-82
2023/06/11 04:29:22;;;;;;;;;;;18.50;68.80;;;17.74;nan;95859.47;5067645;28;20141;-82
2023/06/11 04:31:52;;;;;;;;;;;18.50;68.70;;;17.72;nan;95861.75;5051285;28;19920;-82
2023/06/11 04:34:29;;;;;;;;;;;18.50;68.90;;;17.70;nan;95854.88;5051595;28;20098;-82
2023/06/11 04:36:58;;;;;;;;;;;18.50;69.10;;;17.73;nan;95860.63;5051154;28;19921;-81
2023/06/11 04:39:27;;;;;;;;;;;18.40;69.00;;;17.74;nan;95855.88;5084145;28;19921;-81
2023/06/11 04:41:56;;;;;;;;;;;18.50;69.00;;;17.76;nan;95854.41;5084543;28;19921;-82
2023/06/11 04:44:26;;;;;;;;;;;18.50;69.10;;;17.77;nan;95858.00;5084497;28;19927;-81
2023/06/11 04:46:57;;;;;;;;;;;18.50;69.30;;;17.81;nan;95855.38;5067925;28;19921;-82
2023/06/11 04:49:27;;;;;;;;;;;18.50;69.70;;;17.86;nan;95855.25;5067195;28;19927;-81
2023/06/11 04:51:58;;;;;;;;;;;18.60;70.60;;;17.91;nan;95855.88;5084501;28;20123;-82
2023/06/11 04:54:27;;;;;;;;;;;18.60;69.60;;;17.94;nan;95857.97;5084266;28;19921;-82
2023/06/11 04:56:56;;;;;;;;;;;18.70;69.60;;;17.99;nan;95850.69;5051067;28;19921;-81
2023/06/11 04:59:24;;;;;;;;;;;18.70;69.50;;;18.03;nan;95852.47;5050086;28;19920;-82
2023/06/11 05:01:53;;;;;;;;;;;18.70;69.60;;;18.07;nan;95850.69;5050747;28;20120;-81
2023/06/11 05:04:23;;;;;;;;;;;18.80;69.50;;;18.12;nan;95846.13;5067533;28;20094;-82
2023/06/11 05:06:52;;;;;;;;;;;18.80;69.50;;;18.16;nan;95855.38;5052042;28;19927;-82
2023/06/11 05:09:24;;;;;;;;;;;18.90;69.50;;;18.18;nan;95855.88;5066732;28;19921;-83
2023/06/11 05:11:53;;;;;;;;;;;18.90;69.40;;;18.19;nan;95857.50;5084065;28;19927;-82
2023/06/11 05:14:22;;;;;;;;;;;18.90;69.10;;;18.21;nan;95860.75;5067662;28;20116;-82
2023/06/11 05:16:52;;;;;;;;;;;18.90;69.10;;;18.22;nan;95854.06;5050882;28;19921;-82
2023/06/11 05:19:20;;;;;;;;;;;18.90;69.20;;;18.22;nan;95859.63;5050085;28;20212;-82
2023/06/11 05:21:50;;;;;;;;;;;18.90;69.40;;;18.23;nan;95855.72;5067425;28;19927;-82
2023/06/11 05:24:20;;;;;;;;;;;18.90;69.60;;;18.24;nan;95857.34;5034101;28;19943;-82
2023/06/11 05:26:54;;;;;;;;;;;18.90;69.50;;;18.24;nan;95852.59;5066953;28;19921;-82
2023/06/11 05:29:23;;;;;;;;;;;18.90;69.80;;;18.26;nan;95860.59;5050105;28;19928;-82
2023/06/11 05:31:52;;;;;;;;;;;18.90;69.70;;;18.27;nan;95864.97;5050455;28;19921;-82
2023/06/11 05:34:20;;;;;;;;;;;19.00;69.80;;;18.30;nan;95866.28;5067237;28;19920;-82
2023/06/11 05:36:48;;;;;;;;;;;19.00;69.70;;;18.31;nan;95863.19;5097031;28;20126;-82
2023/06/11 05:39:17;;;;;;;;;;;19.00;69.50;;;18.33;nan;95860.91;5086639;28;20230;-82
2023/06/11 05:41:45;;;;;;;;;;;19.00;69.50;;;18.36;nan;95865.78;5070438;28;19920;-82
2023/06/11 05:44:16;;;;;;;;;;;19.00;69.50;;;18.39;nan;95869.84;5070464;28;19921;-82
2023/06/11 05:46:44;;;;;;;;;;;19.10;69.60;;;18.40;nan;95855.66;5103995;28;19920;-82
2023/06/11 05:49:13;;;;;;;;;;;19.10;69.50;;;18.46;nan;95863.81;5069915;28;19943;-81
2023/06/11 05:51:41;;;;;;;;;;;19.10;69.50;;;18.49;nan;95857.59;5070534;28;19921;-83
2023/06/11 05:54:09;;;;;;;;;;;19.20;69.40;;;18.52;nan;95859.72;5071326;28;20212;-83
2023/06/11 05:56:40;;;;;;;;;;;19.20;69.30;;;18.55;nan;95859.03;5070568;28;19920;-82
2023/06/11 05:59:09;;;;;;;;;;;19.30;69.30;;;18.59;nan;95860.03;5069653;28;19927;-82
2023/06/11 06:01:44;;;;;;;;;;;19.30;69.40;;;18.64;nan;95856.25;5053641;28;19920;-82
2023/06/11 06:04:14;;;;;;;;;;;19.40;69.00;;;18.68;nan;95855.25;5070232;28;19921;-82
2023/06/11 06:06:43;;;;;;;;;;;19.40;68.90;;;18.73;nan;95856.22;5070265;28;19926;-82
2023/06/11 06:09:12;;;;;;;;;;;19.40;68.90;;;18.79;nan;95854.88;5069446;28;19920;-82
2023/06/11 06:11:40;;;;;;;;;;;19.50;69.00;;;18.84;nan;95863.03;5053336;28;19920;-82
2023/06/11 06:14:08;;;;;;;;;;;19.50;68.90;;;18.87;nan;95859.59;5053266;28;19921;-83
2023/06/11 06:16:37;;;;;;;;;;;19.60;68.90;;;18.91;nan;95857.75;5070224;28;20249;-82
2023/06/11 06:19:10;;;;;;;;;;;19.60;69.00;;;18.95;nan;95853.22;5069213;28;20097;-82
2023/06/11 06:21:38;;;;;;;;;;;19.60;68.70;;;18.98;nan;95858.09;5070808;28;20227;-83
2023/06/11 06:24:07;;;;;;;;;;;19.70;68.70;;;18.99;nan;95848.63;5053077;28;19931;-83
2023/06/11 06:26:35;;;;;;;;;;;19.70;68.70;;;19.03;nan;95847.97;5069776;28;19921;-82
2023/06/11 06:29:05;;;;;;;;;;;19.70;68.60;;;19.06;nan;95852.81;5069144;28;19920;-82
2023/06/11 06:31:33;;;;;;;;;;;19.80;68.60;;;19.07;nan;95841.41;5069721;28;19921;-82
2023/06/11 06:34:01;;;;;;;;;;;19.80;68.50;;;19.11;nan;95842.34;5069648;28;19920;-82
2023/06/11 06:36:34;;;;;;;;;;;19.80;68.50;;;19.15;nan;95845.28;5069877;28;19929;-83
2023/06/11 06:39:02;;;;;;;;;;;19.80;68.50;;;19.17;nan;95838.25;5069485;28;19920;-82
2023/06/11 06:41:30;;;;;;;;;;;19.80;68.50;;;19.22;nan;95839.22;5056427;28;20115;-82
2023/06/11 06:44:03;;;;;;;;;;;19.90;68.60;;;19.26;nan;95838.19;5056535;28;19920;-82
2023/06/11 06:46:31;;;;;;;;;;;19.90;68.60;;;19.30;nan;95827.25;5056249;28;20196;-82
2023/06/11 06:48:59;;;;;;;;;;;20.00;68.60;;;19.34;nan;95830.16;5089304;28;19920;-82
2023/06/11 06:51:30;;;;;;;;;;;20.00;68.30;;;19.38;nan;95823.59;5072986;28;19920;-82
2023/06/11 06:53:59;;;;;;;;;;;20.00;68.10;;;19.42;nan;95832.88;5056205;28;19921;-83
2023/06/11 06:56:27;;;;;;;;;;;20.10;68.00;;;19.46;nan;95830.22;5074145;28;19920;-83
2023/06/11 06:58:55;;;;;;;;;;;20.10;67.80;;;19.48;nan;95830.69;5088900;28;19921;-82
2023/06/11 07:01:23;;;;;;;;;;;20.10;67.70;;;19.52;nan;95826.13;5072709;28;19942;-82
2023/06/11 07:03:51;;;;;;;;;;;20.20;67.50;;;19.54;nan;95825.75;5072750;28;20109;-83
2023/06/11 07:06:20;;;;;;;;;;;20.20;67.40;;;19.56;nan;95815.13;5089348;28;19920;-82
2023/06/11 07:08:48;;;;;;;;;;;20.20;67.40;;;19.59;nan;95814.47;5105827;28;19927;-82
2023/06/11 07:11:18;;;;;;;;;;;20.20;67.40;;;19.62;nan;95828.47;5089276;28;19920;-82
2023/06/11 07:13:47;;;;;;;;;;;20.20;67.30;;;19.66;nan;95827.81;5072606;28;19927;-82
2023/06/11 07:16:16;;;;;;;;;;;20.30;67.30;;;19.67;nan;95816.34;5106176;28;19927;-82
2023/06/11 07:18:53;;;;;;;;;;;20.30;67.20;;;19.69;nan;95819.59;5105768;28;19927;-82
2023/06/11 07:21:23;;;;;;;;;;;20.30;67.10;;;19.71;nan;95813.69;5072704;28;19921;-82
2023/06/11 07:23:51;;;;;;;;;;;20.30;67.10;;;19.72;nan;95815.31;5106639;28;19921;-82
2023/06/11 07:26:21;;;;;;;;;;;20.40;67.00;;;19.73;nan;95812.22;5072307;28;20274;-82
2023/06/11 07:28:49;;;;;;;;;;;20.40;66.90;;;19.74;nan;95815.81;5105565;28;19920;-82
2023/06/11 07:31:18;;;;;;;;;;;20.40;66.90;;;19.76;nan;95802.41;5106096;28;19927;-83
2023/06/11 07:33:49;;;;;;;;;;;20.40;66.80;;;19.78;nan;95811.19;5106163;28;19920;-82
2023/06/11 07:36:17;;;;;;;;;;;20.40;66.70;;;19.79;nan;95815.59;5089045;28;19927;-82
2023/06/11 07:38:49;;;;;;;;;;;20.50;66.40;;;19.80;nan;95814.47;5054942;28;19936;-82
2023/06/11 07:41:19;;;;;;;;;;;20.40;66.00;;;19.82;nan;95816.88;5088824;28;19920;-82
2023/06/11 07:43:48;;;;;;;;;;;20.50;66.00;;;19.84;nan;95811.81;5088895;28;20208;-82
2023/06/11 07:46:17;;;;;;;;;;;20.50;65.50;;;19.86;nan;95809.50;5088655;28;19920;-82
2023/06/11 07:48:47;;;;;;;;;;;20.50;65.20;;;19.87;nan;95809.19;5088435;28;19935;-82
2023/06/11 07:51:15;;;;;;;;;;;20.50;65.10;;;19.89;nan;95811.59;5088183;28;19920;-82
2023/06/11 07:53:45;;;;;;;;;;;20.50;64.40;;;19.89;nan;95806.88;5105856;28;19920;-82
2023/06/11 07:56:13;;;;;;;;;;;20.60;65.20;;;19.90;nan;95814.06;5105589;28;19921;-82
2023/06/11 07:58:41;;;;;;;;;;;20.60;64.90;;;19.92;nan;95819.28;5072481;28;19929;-82
2023/06/11 08:01:10;;;;;;;;;;;20.60;64.50;;;19.92;nan;95814.53;5088589;28;19921;-82
2023/06/11 08:03:39;;;;;;;;;;;20.60;64.50;;;19.93;nan;95813.38;5071857;28;20125;-83
2023/06/11 08:06:08;;;;;;;;;;;20.60;64.70;;;19.95;nan;95809.44;5071752;28;19927;-82
2023/06/11 08:08:36;;;;;;;;;;;20.60;64.60;;;19.93;nan;95805.06;5072260;28;19921;-82
2023/06/11 08:11:05;;;;;;;;;;;20.60;64.50;;;19.94;nan;95803.06;5071642;28;19920;-82
2023/06/11 08:13:34;;;;;;;;;;;20.60;64.70;;;19.93;nan;95802.28;5071578;28;19927;-83
2023/06/11 08:16:02;;;;;;;;;;;20.60;64.50;;;19.95;nan;95813.03;5054998;28;19921;-82
2023/06/11 08:18:32;;;;;;;;;;;20.60;64.60;;;19.95;nan;95810.25;5072332;28;19927;-82
2023/06/11 08:21:00;;;;;;;;;;;20.60;64.60;;;19.93;nan;95807.84;5072431;28;19920;-82
2023/06/11 08:23:28;;;;;;;;;;;20.60;64.60;;;19.93;nan;95807.00;5071718;28;19935;-82
2023/06/11 08:25:58;;;;;;;;;;;20.60;64.60;;;19.93;nan;95805.06;5072566;28;20128;-82
2023/06/11 08:28:28;;;;;;;;;;;20.60;64.50;;;19.95;nan;95809.44;5071940;28;19927;-82
2023/06/11 08:30:56;;;;;;;;;;;20.60;64.30;;;19.95;nan;95809.44;5072389;28;19978;-82
2023/06/11 08:33:24;;;;;;;;;;;20.60;64.50;;;19.94;nan;95811.41;5071486;28;19921;-82
2023/06/11 08:35:53;;;;;;;;;;;20.60;64.40;;;19.95;nan;95809.44;5072473;28;19922;-82
2023/06/11 08:38:21;;;;;;;;;;;20.60;64.40;;;19.95;nan;95809.44;5072125;28;20123;-82
2023/06/11 08:40:49;;;;;;;;;;;20.70;64.50;;;19.95;nan;95803.88;5087653;28;20207;-82
2023/06/11 08:43:17;;;;;;;;;;;20.60;64.60;;;19.95;nan;95809.44;5071363;28;19921;-82
2023/06/11 08:45:46;;;;;;;;;;;20.60;64.40;;;19.93;nan;95807.84;5072180;28;19939;-82
2023/06/11 08:48:14;;;;;;;;;;;20.60;64.40;;;19.95;nan;95803.88;5070996;28;19949;-82
2023/06/11 08:50:42;;;;;;;;;;;20.60;64.40;;;19.93;nan;95799.50;5070716;28;19920;-82
2023/06/11 08:53:12;;;;;;;;;;;20.60;64.50;;;19.93;nan;95793.13;5072334;28;19921;-83
2023/06/11 08:55:41;;;;;;;;;;;20.60;64.50;;;19.93;nan;95798.66;5072365;28;20208;-82
2023/06/11 08:58:10;;;;;;;;;;;20.60;64.60;;;19.93;nan;95796.72;5072175;28;19927;-82
2023/06/11 09:00:38;;;;;;;;;;;20.60;64.80;;;19.93;nan;95795.91;5070426;28;19920;-82
2023/06/11 09:03:08;;;;;;;;;;;20.60;64.70;;;19.93;nan;95798.66;5071250;28;19921;-82
2023/06/11 09:05:36;;;;;;;;;;;20.60;64.80;;;19.92;nan;95795.09;5070949;28;19921;-82
2023/06/11 09:08:06;;;;;;;;;;;20.60;64.70;;;19.93;nan;95793.13;5070793;28;19927;-82
2023/06/11 09:10:38;;;;;;;;;;;20.60;64.70;;;19.95;nan;95789.97;5070037;28;19927;-82
2023/06/11 09:13:08;;;;;;;;;;;20.60;64.60;;;19.95;nan;95788.03;5054407;28;19927;-82
2023/06/11 09:15:36;;;;;;;;;;;20.60;64.80;;;19.95;nan;95787.22;5070906;28;19927;-82
2023/06/11 09:18:05;;;;;;;;;;;20.70;65.00;;;19.95;nan;95787.22;5070711;28;19974;-82
2023/06/11 09:20:33;;;;;;;;;;;20.70;64.80;;;19.96;nan;95783.28;5069879;28;19926;-82
2023/06/11 09:23:00;;;;;;;;;;;20.70;65.00;;;19.96;nan;95783.28;5070369;28;19920;-82
2023/06/11 09:25:31;;;;;;;;;;;20.70;65.10;;;19.96;nan;95777.72;5071690;28;20224;-82
2023/06/11 09:28:06;;;;;;;;;;;20.70;65.10;;;19.95;nan;95774.16;5053587;28;19944;-82
2023/06/11 09:30:34;;;;;;;;;;;20.70;65.20;;;19.95;nan;95781.66;5053225;28;19920;-82
2023/06/11 09:33:02;;;;;;;;;;;20.70;65.20;;;19.95;nan;95776.91;5053684;28;19926;-82
2023/06/11 09:35:30;;;;;;;;;;;20.70;65.10;;;19.93;nan;95777.28;5066856;28;19929;-82
2023/06/11 09:37:58;;;;;;;;;;;20.70;65.20;;;19.95;nan;95781.66;5051237;28;20212;-82
2023/06/11 09:40:26;;;;;;;;;;;20.70;65.20;;;19.95;nan;95770.53;5050622;28;19927;-82
2023/06/11 09:42:54;;;;;;;;;;;20.70;65.40;;;19.94;nan;95772.50;5051327;28;19921;-82
2023/06/11 09:45:24;;;;;;;;;;;20.70;65.30;;;19.95;nan;95776.09;5051306;28;20117;-82
2023/06/11 09:47:52;;;;;;;;;;;20.70;65.40;;;19.95;nan;95770.53;5066685;28;19920;-83
2023/06/11 09:50:21;;;;;;;;;;;20.70;65.40;;;19.95;nan;95764.97;5050834;28;19921;-82
2023/06/11 09:52:49;;;;;;;;;;;20.70;65.30;;;19.97;nan;95768.22;5049912;28;19921;-82
2023/06/11 09:55:17;;;;;;;;;;;20.70;65.20;;;19.98;nan;95764.31;5066863;28;19920;-82
2023/06/11 09:57:45;;;;;;;;;;;20.70;65.20;;;19.98;nan;95769.84;5066567;28;19921;-82
2023/06/11 10:00:13;;;;;;;;;;;20.70;65.30;;;19.99;nan;95772.31;5055748;28;19924;-82
2023/06/11 10:02:44;;;;;;;;;;;20.70;64.80;;;20.01;nan;95769.19;5086493;28;19954;-82
2023/06/11 10:05:12;;;;;;;;;;;20.70;64.90;;;20.03;nan;95770.44;5053295;28;19927;-82
2023/06/11 10:07:58;;;;;;;;;;;20.70;64.90;;;20.04;nan;95758.19;5069721;28;19927;-82
2023/06/11 10:10:26;;;;;;;;;;;20.80;64.80;;;20.06;nan;95755.09;5070609;28;19921;-82
2023/06/11 10:12:55;;;;;;;;;;;20.80;64.80;;;20.04;nan;95757.38;5070036;28;19920;-82
2023/06/11 10:15:24;;;;;;;;;;;20.80;64.80;;;20.05;nan;95747.91;5074517;28;19920;-82
2023/06/11 10:17:54;;;;;;;;;;;20.80;64.40;;;20.05;nan;95743.13;5073365;28;19926;-82
2023/06/11 10:20:27;;;;;;;;;;;20.80;64.60;;;20.05;nan;95737.59;5073934;28;19942;-82
2023/06/11 10:23:06;;;;;;;;;;;20.80;64.80;;;20.04;nan;95737.94;5073307;28;19927;-82
2023/06/11 10:25:34;;;;;;;;;;;20.80;64.80;;;20.04;nan;95740.72;5073260;28;19946;-82
2023/06/11 10:28:02;;;;;;;;;;;20.80;64.80;;;20.04;nan;95735.16;5056309;28;19921;-82
2023/06/11 10:30:31;;;;;;;;;;;20.80;64.90;;;20.04;nan;95729.59;5072555;28;19927;-82
2023/06/11 10:33:00;;;;;;;;;;;20.80;65.10;;;20.05;nan;95731.22;5073027;28;19927;-82
2023/06/11 10:35:30;;;;;;;;;;;20.80;64.90;;;20.06;nan;95727.31;5073280;28;19921;-82
2023/06/11 10:38:03;;;;;;;;;;;20.80;64.20;;;20.06;nan;95727.31;5073042;28;19927;-82
2023/06/11 10:40:35;;;;;;;;;;;20.80;64.60;;;20.08;nan;95730.53;5106281;28;20119;-82
2023/06/11 10:43:05;;;;;;;;;;;20.80;64.30;;;20.07;nan;95723.38;5074100;28;20239;-82
2023/06/11 10:45:35;;;;;;;;;;;20.80;64.20;;;20.06;nan;95727.31;5056054;28;19922;-82
2023/06/11 10:48:05;;;;;;;;;;;20.80;64.30;;;20.06;nan;95721.75;5072885;28;19943;-82
2023/06/11 10:50:33;;;;;;;;;;;20.80;64.40;;;20.06;nan;95721.75;5072329;28;19920;-82
2023/06/11 10:53:02;;;;;;;;;;;20.80;64.60;;;20.05;nan;95722.91;5072755;28;19926;-82
2023/06/11 10:55:30;;;;;;;;;;;20.80;64.70;;;20.05;nan;95715.34;5056166;28;19926;-82
2023/06/11 10:57:58;;;;;;;;;;;20.80;64.30;;;20.05;nan;95720.13;5072690;28;19924;-82
2023/06/11 11:00:28;;;;;;;;;;;20.80;64.60;;;20.06;nan;95722.53;5073278;28;19921;-82
2023/06/11 11:02:57;;;;;;;;;;;20.80;64.70;;;20.07;nan;95712.25;5072599;28;19920;-82
2023/06/11 11:05:27;;;;;;;;;;;20.80;64.90;;;20.06;nan;95713.41;5072741;28;19921;-82
2023/06/11 11:07:55;;;;;;;;;;;20.80;65.20;;;20.05;nan;95709.00;5055501;28;19927;-82
2023/06/11 11:10:24;;;;;;;;;;;20.80;65.30;;;20.03;nan;95700.19;5073225;28;19927;-82
2023/06/11 11:12:52;;;;;;;;;;;20.80;65.40;;;20.03;nan;95705.75;5068965;28;19927;-82
2023/06/11 11:15:20;;;;;;;;;;;20.80;65.50;;;20.01;nan;95706.06;5053455;28;20120;-82
2023/06/11 11:17:48;;;;;;;;;;;20.70;65.60;;;19.99;nan;95705.63;5069012;28;19921;-82
2023/06/11 11:20:18;;;;;;;;;;;20.70;65.70;;;19.96;nan;95705.50;5053015;28;19920;-82
2023/06/11 11:22:55;;;;;;;;;;;20.70;65.90;;;19.92;nan;95703.41;5068974;28;19921;-82
2023/06/11 11:25:27;;;;;;;;;;;20.70;66.20;;;19.90;nan;95699.34;5052978;28;19927;-82
2023/06/11 11:27:55;;;;;;;;;;;20.60;66.10;;;19.89;nan;95700.50;5052146;28;19999;-82
2023/06/11 11:30:24;;;;;;;;;;;20.60;66.20;;;19.87;nan;95700.06;5034977;28;19927;-82
2023/06/11 11:32:52;;;;;;;;;;;20.60;66.30;;;19.87;nan;95689.72;5053110;28;19920;-82
2023/06/11 11:35:21;;;;;;;;;;;20.60;66.40;;;19.85;nan;95688.44;5053311;28;20112;-82
2023/06/11 11:37:51;;;;;;;;;;;20.60;66.50;;;19.83;nan;95685.97;5051963;28;19921;-81
2023/06/11 11:40:19;;;;;;;;;;;20.50;66.70;;;19.82;nan;95684.34;5051586;28;19921;-82
2023/06/11 11:42:49;;;;;;;;;;;20.50;66.70;;;19.81;nan;95682.75;5068659;28;19921;-82